Time;durP1;ratioP1;P1;durP2;ratioP2;P2;SDS_P1;SDS_P2;PMS_P1;PMS_P2;Temp;Humidity;BMP_temperature;BMP_pressure;BME280_temperature;BME280_humidity;BME280_pressure;Samples;Min_cycle;Max_cycle;Signal;HPM_P1;HPM_P2
2023/06/15 00:00:26;;;;;;;10.30;6.00;;;;;;;;;;5000112;28;20033;-63
2023/06/15 00:02:52;;;;;;;8.82;5.70;;;;;;;;;;5002355;28;20041;-62
2023/06/15 00:05:18;;;;;;;6.38;5.55;;;;;;;;;;5003805;28;20064;-62
2023/06/15 00:07:44;;;;;;;8.40;5.80;;;;;;;;;;5010720;28;20401;-63
2023/06/15 00:10:11;;;;;;;8.55;5.85;;;;;;;;;;5009617;28;20041;-62
2023/06/15 00:12:37;;;;;;;7.72;5.70;;;;;;;;;;5009681;28;20046;-62
2023/06/15 00:15:03;;;;;;;8.65;6.25;;;;;;;;;;4995646;28;20047;-62
2023/06/15 00:17:31;;;;;;;6.60;5.63;;;;;;;;;;4998237;28;20037;-62
2023/06/15 00:20:00;;;;;;;6.18;5.55;;;;;;;;;;5001273;28;20500;-62
2023/06/15 00:22:28;;;;;;;6.45;5.50;;;;;;;;;;5003505;28;20034;-62
2023/06/15 00:24:55;;;;;;;7.28;5.80;;;;;;;;;;4999226;28;20034;-62
2023/06/15 00:27:21;;;;;;;8.60;5.68;;;;;;;;;;5000297;28;20407;-62
2023/06/15 00:29:48;;;;;;;8.77;5.80;;;;;;;;;;5018940;28;20045;-62
2023/06/15 00:32:14;;;;;;;6.75;5.57;;;;;;;;;;4993914;28;20506;-62
2023/06/15 00:34:40;;;;;;;6.38;5.57;;;;;;;;;;5010702;28;20029;-62
2023/06/15 00:37:06;;;;;;;7.10;6.10;;;;;;;;;;5019222;28;20384;-62
2023/06/15 00:39:32;;;;;;;6.22;5.60;;;;;;;;;;5007153;28;20041;-61
2023/06/15 00:41:58;;;;;;;8.15;5.60;;;;;;;;;;5009281;28;20038;-63
2023/06/15 00:44:27;;;;;;;5.97;5.30;;;;;;;;;;5017000;28;20041;-61
2023/06/15 00:46:53;;;;;;;8.50;5.78;;;;;;;;;;5008876;28;20037;-62
2023/06/15 00:49:21;;;;;;;8.90;5.70;;;;;;;;;;5009115;28;20045;-62
2023/06/15 00:51:47;;;;;;;8.38;6.05;;;;;;;;;;5019575;28;20049;-62
2023/06/15 00:54:18;;;;;;;6.95;5.40;;;;;;;;;;5009657;28;20045;-62
2023/06/15 00:56:45;;;;;;;9.32;5.35;;;;;;;;;;5019000;28;20038;-62
2023/06/15 00:59:11;;;;;;;9.23;5.97;;;;;;;;;;5006627;28;20046;-62
2023/06/15 01:01:37;;;;;;;8.73;5.50;;;;;;;;;;4995633;28;20090;-61
2023/06/15 01:04:04;;;;;;;8.40;5.50;;;;;;;;;;4998763;28;20034;-62
2023/06/15 01:06:31;;;;;;;7.80;5.43;;;;;;;;;;4999471;28;20038;-62
2023/06/15 01:09:01;;;;;;;7.78;5.78;;;;;;;;;;5005266;28;20042;-62
2023/06/15 01:11:30;;;;;;;7.50;5.45;;;;;;;;;;5010447;28;20041;-62
2023/06/15 01:13:57;;;;;;;8.05;5.82;;;;;;;;;;5009340;28;20061;-62
2023/06/15 01:16:35;;;;;;;8.18;5.68;;;;;;;;;;5000755;28;20065;-61
2023/06/15 01:19:01;;;;;;;9.93;5.97;;;;;;;;;;4998670;28;20026;-62
2023/06/15 01:21:29;;;;;;;6.60;5.53;;;;;;;;;;4998525;28;20029;-61
2023/06/15 01:24:08;;;;;;;7.28;5.72;;;;;;;;;;4998345;28;20034;-61
2023/06/15 01:26:37;;;;;;;8.77;6.18;;;;;;;;;;4997730;28;20508;-61
2023/06/15 01:29:04;;;;;;;6.72;5.80;;;;;;;;;;5000929;28;20053;-60
2023/06/15 01:31:31;;;;;;;7.22;5.32;;;;;;;;;;4993273;28;20041;-61
2023/06/15 01:34:00;;;;;;;7.13;5.68;;;;;;;;;;5007528;28;20044;-61
2023/06/15 01:36:26;;;;;;;7.18;5.80;;;;;;;;;;4997492;28;20050;-60
2023/06/15 01:38:55;;;;;;;8.90;6.60;;;;;;;;;;5007866;28;20045;-61
2023/06/15 01:41:23;;;;;;;7.15;5.68;;;;;;;;;;5011816;28;20050;-61
2023/06/15 01:43:51;;;;;;;10.63;5.82;;;;;;;;;;5013130;28;20038;-60
2023/06/15 01:46:19;;;;;;;7.70;6.00;;;;;;;;;;5012799;28;20427;-61
2023/06/15 01:48:46;;;;;;;7.57;5.47;;;;;;;;;;5017955;28;20030;-61
2023/06/15 01:51:13;;;;;;;6.20;5.38;;;;;;;;;;5000135;28;20281;-61
2023/06/15 01:53:42;;;;;;;6.70;5.82;;;;;;;;;;4996777;28;20034;-61
2023/06/15 01:56:09;;;;;;;7.47;5.43;;;;;;;;;;4992935;28;20039;-62
2023/06/15 01:58:37;;;;;;;7.50;5.87;;;;;;;;;;4995911;28;20045;-61
2023/06/15 02:01:04;;;;;;;7.13;5.80;;;;;;;;;;5007060;28;20073;-62
2023/06/15 02:03:31;;;;;;;9.60;5.70;;;;;;;;;;5006668;28;20037;-61
2023/06/15 02:05:57;;;;;;;7.00;5.97;;;;;;;;;;5022750;28;20037;-62
2023/06/15 02:08:23;;;;;;;7.28;6.07;;;;;;;;;;5009052;28;20045;-62
2023/06/15 02:10:49;;;;;;;7.53;5.80;;;;;;;;;;5012920;28;20053;-61
2023/06/15 02:13:17;;;;;;;7.13;5.70;;;;;;;;;;5010093;28;20050;-62
2023/06/15 02:15:43;;;;;;;7.85;5.63;;;;;;;;;;5005368;28;20041;-62
2023/06/15 02:18:14;;;;;;;7.60;6.13;;;;;;;;;;4999464;28;20038;-62
2023/06/15 02:20:41;;;;;;;7.35;6.03;;;;;;;;;;5003065;28;20677;-62
2023/06/15 02:23:08;;;;;;;7.13;5.95;;;;;;;;;;5000554;28;20038;-61
2023/06/15 02:25:35;;;;;;;9.02;6.00;;;;;;;;;;4995816;28;20049;-62
2023/06/15 02:28:02;;;;;;;7.15;6.32;;;;;;;;;;4999518;28;20053;-62
2023/06/15 02:30:29;;;;;;;6.78;6.05;;;;;;;;;;5004827;28;20034;-62
2023/06/15 02:33:00;;;;;;;8.48;6.38;;;;;;;;;;5010786;28;20034;-61
2023/06/15 02:35:27;;;;;;;7.47;6.30;;;;;;;;;;5012925;28;20045;-62
2023/06/15 02:37:53;;;;;;;10.10;6.68;;;;;;;;;;5023896;28;20034;-62
2023/06/15 02:40:20;;;;;;;9.02;6.63;;;;;;;;;;5004179;28;20061;-62
2023/06/15 02:42:46;;;;;;;9.40;6.60;;;;;;;;;;5012768;28;20101;-61
2023/06/15 02:45:13;;;;;;;9.40;6.82;;;;;;;;;;5018320;28;20038;-61
2023/06/15 02:47:42;;;;;;;9.95;6.80;;;;;;;;;;5014332;28;20109;-61
2023/06/15 02:50:08;;;;;;;8.27;6.80;;;;;;;;;;5012440;28;20042;-61
2023/06/15 02:52:40;;;;;;;8.98;6.70;;;;;;;;;;5020388;28;20049;-61
2023/06/15 02:55:13;;;;;;;9.43;6.53;;;;;;;;;;5015615;28;20045;-62
2023/06/15 02:57:40;;;;;;;7.53;6.18;;;;;;;;;;5011832;28;20040;-62
2023/06/15 03:00:40;;;;;;;10.65;6.88;;;;;;;;;;5000326;28;20045;-61
2023/06/15 03:03:22;;;;;;;7.25;6.40;;;;;;;;;;5000030;28;20034;-61
2023/06/15 03:05:51;;;;;;;12.63;7.53;;;;;;;;;;5012060;28;20038;-61
2023/06/15 03:08:18;;;;;;;8.95;6.47;;;;;;;;;;5018777;28;20385;-62
2023/06/15 03:10:54;;;;;;;7.75;6.28;;;;;;;;;;5016126;28;20415;-62
2023/06/15 03:13:20;;;;;;;11.95;6.30;;;;;;;;;;5009000;28;20435;-61
2023/06/15 03:15:48;;;;;;;10.02;6.72;;;;;;;;;;4990984;28;20038;-61
2023/06/15 03:18:14;;;;;;;8.93;6.57;;;;;;;;;;4998965;28;20042;-61
2023/06/15 03:20:43;;;;;;;8.43;6.50;;;;;;;;;;4996909;28;20046;-62
2023/06/15 03:23:10;;;;;;;9.23;6.22;;;;;;;;;;5006751;28;20030;-61
2023/06/15 03:25:37;;;;;;;9.68;6.20;;;;;;;;;;5005496;28;20125;-60
2023/06/15 03:28:03;;;;;;;8.48;6.45;;;;;;;;;;5010812;28;20033;-61
2023/06/15 03:30:35;;;;;;;9.80;6.60;;;;;;;;;;4994635;28;20065;-62
2023/06/15 03:33:02;;;;;;;12.45;6.90;;;;;;;;;;5006917;28;20068;-60
2023/06/15 03:35:28;;;;;;;9.30;6.97;;;;;;;;;;5007199;28;20038;-60
2023/06/15 03:37:54;;;;;;;9.32;7.07;;;;;;;;;;5001343;28;20032;-62
2023/06/15 03:40:21;;;;;;;9.40;7.05;;;;;;;;;;4999915;28;20134;-61
2023/06/15 03:42:47;;;;;;;10.07;6.75;;;;;;;;;;5016356;28;20399;-61
2023/06/15 03:45:13;;;;;;;9.57;6.85;;;;;;;;;;5007896;28;20077;-61
2023/06/15 03:47:40;;;;;;;9.90;7.20;;;;;;;;;;5010320;28;20042;-61
2023/06/15 03:50:07;;;;;;;10.93;7.68;;;;;;;;;;4999510;28;20035;-62
2023/06/15 03:52:35;;;;;;;12.43;6.95;;;;;;;;;;5007107;28;20046;-61
2023/06/15 03:55:02;;;;;;;10.85;6.93;;;;;;;;;;5011571;28;20056;-61
2023/06/15 03:57:29;;;;;;;9.90;7.07;;;;;;;;;;5002650;28;20041;-60
2023/06/15 03:59:56;;;;;;;9.25;7.07;;;;;;;;;;5019507;28;20041;-61
2023/06/15 04:02:22;;;;;;;10.98;7.38;;;;;;;;;;4997026;28;20027;-61
2023/06/15 04:04:48;;;;;;;10.23;7.03;;;;;;;;;;5014004;28;20030;-62
2023/06/15 04:07:17;;;;;;;9.85;7.15;;;;;;;;;;5005898;28;20526;-61
2023/06/15 04:09:43;;;;;;;12.43;7.10;;;;;;;;;;4998308;28;20046;-62
2023/06/15 04:12:10;;;;;;;9.05;6.90;;;;;;;;;;4996595;28;20061;-61
2023/06/15 04:14:37;;;;;;;9.63;7.10;;;;;;;;;;4992840;28;20041;-61
2023/06/15 04:17:04;;;;;;;10.68;7.78;;;;;;;;;;5004974;28;20053;-61
2023/06/15 04:19:30;;;;;;;9.85;7.63;;;;;;;;;;4999305;28;20047;-60
2023/06/15 04:21:56;;;;;;;8.75;7.22;;;;;;;;;;4998015;28;20401;-60
2023/06/15 04:24:22;;;;;;;9.55;7.38;;;;;;;;;;4996887;28;20057;-60
2023/06/15 04:26:49;;;;;;;8.88;7.43;;;;;;;;;;4997007;28;20042;-60
2023/06/15 04:29:18;;;;;;;9.82;7.25;;;;;;;;;;4964355;28;20072;-60
2023/06/15 04:31:46;;;;;;;13.48;7.82;;;;;;;;;;5003770;28;20038;-60
2023/06/15 04:34:15;;;;;;;10.50;7.70;;;;;;;;;;4994951;28;20054;-60
2023/06/15 04:36:44;;;;;;;11.23;8.23;;;;;;;;;;5000404;28;20049;-61
2023/06/15 04:39:11;;;;;;;10.70;7.68;;;;;;;;;;5002839;28;20030;-60
2023/06/15 04:41:39;;;;;;;10.38;8.10;;;;;;;;;;5004156;28;20045;-60
2023/06/15 04:44:06;;;;;;;12.77;8.73;;;;;;;;;;5013506;28;20056;-60
2023/06/15 04:46:32;;;;;;;11.23;8.23;;;;;;;;;;5002929;28;20041;-60
2023/06/15 04:49:00;;;;;;;14.25;8.65;;;;;;;;;;5006501;28;20105;-61
2023/06/15 04:51:27;;;;;;;12.85;7.80;;;;;;;;;;5006723;28;20035;-60
2023/06/15 04:53:54;;;;;;;10.10;8.05;;;;;;;;;;5008565;28;20048;-59
2023/06/15 04:56:21;;;;;;;9.82;7.95;;;;;;;;;;5020604;28;20399;-60
2023/06/15 04:58:48;;;;;;;12.82;7.80;;;;;;;;;;5008747;28;20411;-60
2023/06/15 05:01:15;;;;;;;14.68;7.88;;;;;;;;;;5008315;28;20443;-58
2023/06/15 05:03:41;;;;;;;11.52;6.80;;;;;;;;;;5010455;28;20068;-57
2023/06/15 05:06:08;;;;;;;15.57;6.90;;;;;;;;;;4998288;28;20050;-59
2023/06/15 05:08:35;;;;;;;12.10;8.35;;;;;;;;;;5008660;28;20651;-61
2023/06/15 05:11:02;;;;;;;11.52;8.52;;;;;;;;;;5009230;28;20041;-61
2023/06/15 05:13:30;;;;;;;11.50;9.38;;;;;;;;;;5019582;28;20041;-60
2023/06/15 05:15:56;;;;;;;13.18;9.40;;;;;;;;;;5009947;28;20034;-61
2023/06/15 05:18:25;;;;;;;14.00;9.55;;;;;;;;;;5017837;28;20041;-60
2023/06/15 05:20:51;;;;;;;15.05;9.43;;;;;;;;;;5011766;28;20384;-61
2023/06/15 05:23:19;;;;;;;13.73;9.57;;;;;;;;;;5001855;28;20041;-61
2023/06/15 05:25:45;;;;;;;14.77;10.38;;;;;;;;;;5004490;28;20412;-60
2023/06/15 05:28:12;;;;;;;14.13;10.00;;;;;;;;;;5003828;28;20049;-59
2023/06/15 05:30:40;;;;;;;12.73;9.45;;;;;;;;;;5007587;28;20049;-60
2023/06/15 05:33:06;;;;;;;14.90;9.93;;;;;;;;;;4988078;28;20068;-60
2023/06/15 05:35:32;;;;;;;18.05;10.77;;;;;;;;;;5008401;28;20233;-61
2023/06/15 05:38:00;;;;;;;17.23;10.88;;;;;;;;;;5012372;28;20038;-62
2023/06/15 05:40:26;;;;;;;14.02;10.38;;;;;;;;;;4980990;28;20058;-61
2023/06/15 05:42:54;;;;;;;18.83;10.48;;;;;;;;;;4999419;28;20411;-61
2023/06/15 05:45:20;;;;;;;14.20;10.23;;;;;;;;;;4991436;28;20041;-61
2023/06/15 05:47:46;;;;;;;16.52;10.45;;;;;;;;;;5012429;28;20053;-60
2023/06/15 05:50:13;;;;;;;18.63;10.52;;;;;;;;;;5007806;28;20411;-61
2023/06/15 05:52:40;;;;;;;15.60;10.90;;;;;;;;;;5020096;28;20042;-61
2023/06/15 05:55:07;;;;;;;17.75;11.95;;;;;;;;;;5003942;28;20052;-61
2023/06/15 05:57:33;;;;;;;16.10;11.75;;;;;;;;;;4990594;28;20037;-60
2023/06/15 06:00:03;;;;;;;17.27;10.82;;;;;;;;;;5006417;28;20037;-61
2023/06/15 06:02:42;;;;;;;18.73;11.25;;;;;;;;;;5008913;28;20030;-62
2023/06/15 06:05:15;;;;;;;19.50;13.13;;;;;;;;;;5010744;28;20054;-61
2023/06/15 06:07:45;;;;;;;18.70;11.38;;;;;;;;;;5017137;28;20034;-61
2023/06/15 06:10:11;;;;;;;16.77;11.65;;;;;;;;;;5023015;28;20057;-61
2023/06/15 06:12:38;;;;;;;21.50;11.55;;;;;;;;;;5007431;28;20041;-61
2023/06/15 06:15:05;;;;;;;16.60;11.75;;;;;;;;;;5014690;28;20053;-60
2023/06/15 06:17:32;;;;;;;19.77;11.40;;;;;;;;;;5022677;28;20045;-60
2023/06/15 06:19:58;;;;;;;16.10;11.60;;;;;;;;;;5013387;28;20042;-60
2023/06/15 06:22:24;;;;;;;17.17;11.93;;;;;;;;;;5004057;28;20049;-60
2023/06/15 06:24:51;;;;;;;19.33;11.68;;;;;;;;;;5009399;28;20517;-61
2023/06/15 06:27:18;;;;;;;15.60;11.07;;;;;;;;;;5005264;28;20415;-60
2023/06/15 06:29:44;;;;;;;19.00;12.10;;;;;;;;;;5008821;28;20034;-61
2023/06/15 06:32:10;;;;;;;17.55;11.80;;;;;;;;;;5014739;28;20052;-59
2023/06/15 06:34:36;;;;;;;17.08;11.63;;;;;;;;;;5024325;28;20065;-61
2023/06/15 06:37:04;;;;;;;21.13;11.27;;;;;;;;;;5014376;28;20049;-61
2023/06/15 06:39:30;;;;;;;17.88;12.02;;;;;;;;;;5012313;28;20042;-61
2023/06/15 06:41:57;;;;;;;22.85;12.85;;;;;;;;;;5010043;28;20040;-61
2023/06/15 06:44:31;;;;;;;17.05;11.43;;;;;;;;;;5015561;28;20039;-61
2023/06/15 06:46:59;;;;;;;16.38;12.68;;;;;;;;;;5011956;28;20049;-61
2023/06/15 06:49:25;;;;;;;22.00;13.00;;;;;;;;;;5020465;28;20033;-60
2023/06/15 06:51:52;;;;;;;18.48;11.82;;;;;;;;;;5011367;28;20105;-61
2023/06/15 06:54:18;;;;;;;18.35;12.73;;;;;;;;;;5012897;28;20399;-60
2023/06/15 06:56:44;;;;;;;20.92;13.43;;;;;;;;;;5011817;28;20053;-62
2023/06/15 06:59:10;;;;;;;17.75;12.27;;;;;;;;;;5012289;28;20033;-60
2023/06/15 07:01:36;;;;;;;18.80;12.15;;;;;;;;;;5009783;28;20053;-61
2023/06/15 07:04:02;;;;;;;19.70;12.73;;;;;;;;;;5010841;28;20456;-60
2023/06/15 07:06:28;;;;;;;20.50;13.65;;;;;;;;;;5012452;28;20053;-59
2023/06/15 07:08:55;;;;;;;24.05;12.98;;;;;;;;;;5012349;28;20531;-60
2023/06/15 07:11:21;;;;;;;18.83;13.45;;;;;;;;;;5005198;28;20503;-60
2023/06/15 07:13:47;;;;;;;19.85;13.07;;;;;;;;;;5023177;28;20042;-60
2023/06/15 07:16:13;;;;;;;22.52;13.27;;;;;;;;;;5012238;28;20639;-61
2023/06/15 07:18:39;;;;;;;23.08;13.18;;;;;;;;;;5014625;28;20519;-60
2023/06/15 07:21:05;;;;;;;22.73;13.50;;;;;;;;;;5007857;28;20042;-60
2023/06/15 07:23:31;;;;;;;22.00;13.45;;;;;;;;;;5023562;28;20046;-60
2023/06/15 07:25:57;;;;;;;18.63;12.90;;;;;;;;;;5011800;28;20053;-59
2023/06/15 07:28:24;;;;;;;21.35;14.10;;;;;;;;;;5012444;28;20041;-61
2023/06/15 07:30:50;;;;;;;20.90;14.70;;;;;;;;;;5010692;28;20053;-60
2023/06/15 07:33:17;;;;;;;23.55;13.82;;;;;;;;;;5007984;28;20049;-61
2023/06/15 07:35:44;;;;;;;20.20;13.60;;;;;;;;;;5018134;28;20042;-61
2023/06/15 07:38:13;;;;;;;21.00;13.27;;;;;;;;;;5023755;28;20495;-61
2023/06/15 07:40:39;;;;;;;20.35;13.68;;;;;;;;;;5013627;28;20037;-61
2023/06/15 07:43:05;;;;;;;23.85;13.73;;;;;;;;;;5023203;28;20038;-60
2023/06/15 07:45:31;;;;;;;20.60;13.48;;;;;;;;;;5019422;28;20037;-61
2023/06/15 07:47:57;;;;;;;21.70;13.60;;;;;;;;;;5011646;28;20411;-61
2023/06/15 07:50:26;;;;;;;20.08;13.30;;;;;;;;;;5010643;28;20075;-61
2023/06/15 07:52:52;;;;;;;21.02;13.20;;;;;;;;;;5001110;28;20036;-61
2023/06/15 07:55:18;;;;;;;23.83;13.55;;;;;;;;;;5011364;28;20066;-60
2023/06/15 07:57:44;;;;;;;22.88;12.90;;;;;;;;;;5011487;28;20057;-61
2023/06/15 08:00:11;;;;;;;28.08;13.45;;;;;;;;;;5009824;28;20049;-60
2023/06/15 08:02:37;;;;;;;22.90;13.98;;;;;;;;;;5010489;28;20040;-61
2023/06/15 08:05:04;;;;;;;26.05;14.40;;;;;;;;;;5000265;28;20423;-61
2023/06/15 08:07:31;;;;;;;18.58;14.07;;;;;;;;;;5011998;28;20036;-61
2023/06/15 08:09:58;;;;;;;28.73;16.95;;;;;;;;;;5010284;28;20056;-61
2023/06/15 08:12:24;;;;;;;27.13;16.00;;;;;;;;;;5009878;28;20054;-61
2023/06/15 08:14:50;;;;;;;23.75;15.18;;;;;;;;;;5011341;28;20049;-61
2023/06/15 08:17:16;;;;;;;31.88;15.65;;;;;;;;;;5005553;28;20045;-61
2023/06/15 08:19:42;;;;;;;26.30;15.07;;;;;;;;;;5009437;28;20498;-61
2023/06/15 08:22:08;;;;;;;24.27;14.70;;;;;;;;;;5009709;28;20054;-61
2023/06/15 08:24:34;;;;;;;27.85;15.57;;;;;;;;;;5010496;28;20407;-61
2023/06/15 08:27:01;;;;;;;22.50;14.68;;;;;;;;;;5009581;28;20661;-60
2023/06/15 08:29:27;;;;;;;24.17;13.73;;;;;;;;;;5009763;28;20029;-61
2023/06/15 08:31:54;;;;;;;22.95;13.90;;;;;;;;;;5023005;28;20037;-61
2023/06/15 08:34:21;;;;;;;20.95;13.70;;;;;;;;;;5011240;28;20037;-61
2023/06/15 08:36:49;;;;;;;22.92;13.55;;;;;;;;;;5009774;28;20038;-61
2023/06/15 08:39:16;;;;;;;18.55;13.43;;;;;;;;;;5004283;28;20070;-61
2023/06/15 08:41:45;;;;;;;19.63;12.93;;;;;;;;;;5009206;28;20041;-61
2023/06/15 08:44:12;;;;;;;18.55;13.15;;;;;;;;;;5014611;28;20072;-63
2023/06/15 08:46:39;;;;;;;20.25;11.40;;;;;;;;;;5005032;28;20053;-61
2023/06/15 08:49:05;;;;;;;20.65;13.35;;;;;;;;;;5012683;28;20045;-62
2023/06/15 08:51:33;;;;;;;22.45;12.52;;;;;;;;;;5008392;28;20038;-61
2023/06/15 08:53:59;;;;;;;19.55;11.75;;;;;;;;;;5012195;28;20041;-62
2023/06/15 08:56:26;;;;;;;22.85;12.10;;;;;;;;;;5014387;28;20056;-61
2023/06/15 08:58:52;;;;;;;16.48;11.63;;;;;;;;;;5005936;28;20033;-62
2023/06/15 09:01:23;;;;;;;18.70;13.43;;;;;;;;;;5003226;28;20422;-62
2023/06/15 09:03:54;;;;;;;17.90;11.85;;;;;;;;;;5012485;28;20522;-62
2023/06/15 09:06:22;;;;;;;17.55;12.43;;;;;;;;;;5006464;28;20042;-61
2023/06/15 09:08:49;;;;;;;20.88;13.00;;;;;;;;;;5016193;28;20060;-62
2023/06/15 09:11:17;;;;;;;20.52;12.38;;;;;;;;;;5009395;28;20042;-61
2023/06/15 09:13:44;;;;;;;17.50;11.75;;;;;;;;;;5009388;28;20045;-62
2023/06/15 09:16:11;;;;;;;19.90;11.90;;;;;;;;;;5008671;28;20057;-62
2023/06/15 09:18:45;;;;;;;16.42;11.05;;;;;;;;;;5025400;28;20033;-62
2023/06/15 09:21:13;;;;;;;16.13;11.73;;;;;;;;;;5009582;28;20034;-62
2023/06/15 09:23:41;;;;;;;17.83;12.70;;;;;;;;;;5015984;28;20042;-62
2023/06/15 09:26:07;;;;;;;17.55;11.82;;;;;;;;;;5009816;28;20435;-62
2023/06/15 09:28:42;;;;;;;19.52;11.77;;;;;;;;;;5010591;28;20048;-63
2023/06/15 09:31:09;;;;;;;16.33;11.95;;;;;;;;;;5013035;28;20049;-63
2023/06/15 09:33:35;;;;;;;18.23;10.98;;;;;;;;;;5001382;28;20040;-62
2023/06/15 09:36:05;;;;;;;14.43;9.30;;;;;;;;;;5017527;28;20049;-63
2023/06/15 09:38:43;;;;;;;17.08;10.18;;;;;;;;;;5012465;28;20412;-63
2023/06/15 09:41:10;;;;;;;15.63;10.10;;;;;;;;;;5007248;28;20033;-62
2023/06/15 09:43:38;;;;;;;15.43;9.90;;;;;;;;;;5018307;28;20041;-63
2023/06/15 09:46:10;;;;;;;15.77;9.80;;;;;;;;;;5009806;28;20025;-63
2023/06/15 09:48:38;;;;;;;14.13;10.10;;;;;;;;;;5010288;28;20034;-63
2023/06/15 09:51:04;;;;;;;15.38;9.65;;;;;;;;;;5015207;28;20041;-63
2023/06/15 09:53:31;;;;;;;12.68;9.70;;;;;;;;;;5016527;28;20399;-63
2023/06/15 09:56:01;;;;;;;13.85;9.77;;;;;;;;;;5020054;28;20041;-63
2023/06/15 09:58:27;;;;;;;13.23;9.38;;;;;;;;;;5009864;28;20041;-63
2023/06/15 10:00:57;;;;;;;12.50;10.20;;;;;;;;;;5011880;28;20042;-63
2023/06/15 10:03:25;;;;;;;13.13;9.57;;;;;;;;;;5021753;28;20041;-63
2023/06/15 10:06:15;;;;;;;15.25;9.02;;;;;;;;;;5019302;28;20065;-63
2023/06/15 10:08:44;;;;;;;12.18;9.50;;;;;;;;;;5007248;28;20045;-64
2023/06/15 10:11:12;;;;;;;14.93;9.88;;;;;;;;;;5009683;28;20403;-63
2023/06/15 10:13:45;;;;;;;13.50;9.82;;;;;;;;;;5008836;28;20060;-64
2023/06/15 10:16:15;;;;;;;11.27;8.20;;;;;;;;;;5008583;28;20807;-63
2023/06/15 10:18:44;;;;;;;14.75;9.10;;;;;;;;;;5009253;28;21087;-63
2023/06/15 10:21:26;;;;;;;10.38;8.30;;;;;;;;;;5007554;28;20484;-63
2023/06/15 10:23:56;;;;;;;12.85;8.60;;;;;;;;;;5006925;28;20042;-64
2023/06/15 10:26:22;;;;;;;9.85;8.30;;;;;;;;;;5005729;28;20056;-64
2023/06/15 10:28:58;;;;;;;12.30;8.60;;;;;;;;;;5016850;28;20037;-63
2023/06/15 10:31:35;;;;;;;13.30;8.90;;;;;;;;;;5008311;28;20053;-64
2023/06/15 10:34:09;;;;;;;12.45;8.32;;;;;;;;;;5008285;28;20037;-63
2023/06/15 10:37:04;;;;;;;10.48;8.30;;;;;;;;;;4999381;28;20038;-67
2023/06/15 10:39:44;;;;;;;15.07;9.13;;;;;;;;;;5008618;28;20046;-66
2023/06/15 10:42:16;;;;;;;10.45;8.27;;;;;;;;;;5007205;28;20061;-66
2023/06/15 10:44:42;;;;;;;12.57;8.75;;;;;;;;;;5012461;28;20061;-65
2023/06/15 10:47:13;;;;;;;13.07;8.23;;;;;;;;;;5008793;28;20038;-65
2023/06/15 10:49:52;;;;;;;11.60;8.70;;;;;;;;;;5022928;28;20041;-65
2023/06/15 10:52:19;;;;;;;16.85;8.98;;;;;;;;;;5001975;28;20045;-66
2023/06/15 10:54:46;;;;;;;12.98;8.27;;;;;;;;;;5013326;28;20403;-65
2023/06/15 10:57:16;;;;;;;10.82;8.50;;;;;;;;;;5010580;28;20053;-66
2023/06/15 10:59:53;;;;;;;10.70;8.10;;;;;;;;;;5023543;28;20050;-66
2023/06/15 11:02:28;;;;;;;15.63;9.13;;;;;;;;;;5012099;28;20038;-66
2023/06/15 11:05:10;;;;;;;15.63;8.77;;;;;;;;;;5020675;28;20435;-66
2023/06/15 11:07:39;;;;;;;9.77;8.77;;;;;;;;;;5001233;28;20046;-66
2023/06/15 11:10:42;;;;;;;13.35;9.32;;;;;;;;;;4999217;28;20051;-67
2023/06/15 11:13:08;;;;;;;16.25;9.15;;;;;;;;;;4964730;28;20413;-66
2023/06/15 11:15:36;;;;;;;13.90;9.07;;;;;;;;;;4997397;28;20049;-65
2023/06/15 11:18:04;;;;;;;13.18;8.43;;;;;;;;;;5010958;28;20046;-66
2023/06/15 11:20:56;;;;;;;11.35;8.98;;;;;;;;;;5014771;28;20038;-66
2023/06/15 11:23:32;;;;;;;20.80;9.57;;;;;;;;;;5010278;28;20042;-66
2023/06/15 11:26:01;;;;;;;13.32;9.13;;;;;;;;;;5011001;28;20034;-66
2023/06/15 11:28:31;;;;;;;11.68;9.35;;;;;;;;;;5012405;28;20037;-65
2023/06/15 11:31:02;;;;;;;11.23;8.23;;;;;;;;;;5011991;28;20453;-65
2023/06/15 11:33:30;;;;;;;12.63;8.43;;;;;;;;;;5011772;28;20058;-65
2023/06/15 11:36:03;;;;;;;14.82;8.43;;;;;;;;;;5011264;28;20033;-65
2023/06/15 11:38:30;;;;;;;11.18;8.23;;;;;;;;;;5012214;28;20049;-65
2023/06/15 11:41:03;;;;;;;13.25;8.57;;;;;;;;;;5023352;28;20040;-65
2023/06/15 11:43:40;;;;;;;14.57;7.65;;;;;;;;;;5009425;28;20045;-66
2023/06/15 11:46:15;;;;;;;10.82;8.13;;;;;;;;;;5014873;28;20045;-65
2023/06/15 11:48:45;;;;;;;14.73;8.65;;;;;;;;;;5022411;28;20042;-64
2023/06/15 11:51:13;;;;;;;11.10;8.70;;;;;;;;;;5012217;28;20045;-62
2023/06/15 11:53:40;;;;;;;13.18;9.23;;;;;;;;;;5011715;28;20033;-63
2023/06/15 11:56:14;;;;;;;12.68;8.55;;;;;;;;;;5011804;28;20411;-62
2023/06/15 11:58:46;;;;;;;10.90;8.13;;;;;;;;;;5008051;28;20046;-62
2023/06/15 12:01:14;;;;;;;14.88;9.10;;;;;;;;;;5010825;28;20042;-62
2023/06/15 12:03:48;;;;;;;11.70;8.77;;;;;;;;;;5011603;28;20491;-63
2023/06/15 12:06:18;;;;;;;11.30;8.70;;;;;;;;;;5022424;28;20054;-63
2023/06/15 12:08:46;;;;;;;12.25;8.50;;;;;;;;;;5009816;28;20054;-62
2023/06/15 12:11:12;;;;;;;12.30;8.70;;;;;;;;;;5006357;28;20050;-64
2023/06/15 12:13:39;;;;;;;13.88;8.77;;;;;;;;;;5011471;28;20038;-64
2023/06/15 12:16:08;;;;;;;12.27;8.13;;;;;;;;;;5011832;28;20033;-64
2023/06/15 12:18:34;;;;;;;11.80;8.43;;;;;;;;;;5011390;28;20038;-62
2023/06/15 12:21:03;;;;;;;13.15;8.25;;;;;;;;;;5007130;28;20050;-61
2023/06/15 12:23:31;;;;;;;9.82;8.68;;;;;;;;;;5007844;28;20029;-63
2023/06/15 12:26:00;;;;;;;8.90;7.82;;;;;;;;;;5010454;28;20053;-64
2023/06/15 12:28:27;;;;;;;12.75;7.88;;;;;;;;;;5010869;28;20037;-64
2023/06/15 12:31:02;;;;;;;12.27;8.77;;;;;;;;;;5017524;28;20052;-63
2023/06/15 12:33:31;;;;;;;14.25;8.25;;;;;;;;;;5012200;28;20049;-63
2023/06/15 12:35:59;;;;;;;12.75;8.73;;;;;;;;;;5004017;28;20057;-63
2023/06/15 12:38:27;;;;;;;10.50;8.45;;;;;;;;;;5005568;28;20048;-67
2023/06/15 12:40:55;;;;;;;9.75;8.50;;;;;;;;;;5010157;28;20045;-63
2023/06/15 12:43:26;;;;;;;11.10;8.18;;;;;;;;;;5013225;28;20042;-63
2023/06/15 12:45:54;;;;;;;11.38;7.55;;;;;;;;;;5009913;28;20046;-63
2023/06/15 12:48:22;;;;;;;14.35;8.15;;;;;;;;;;5010231;28;20045;-64
2023/06/15 12:50:50;;;;;;;12.68;7.95;;;;;;;;;;5011027;28;20833;-65
2023/06/15 12:53:20;;;;;;;11.02;7.90;;;;;;;;;;5008770;28;20072;-64
2023/06/15 12:55:47;;;;;;;13.55;7.85;;;;;;;;;;5010901;28;20518;-64
2023/06/15 12:58:13;;;;;;;10.35;8.07;;;;;;;;;;4999949;28;20038;-63
2023/06/15 13:00:40;;;;;;;13.80;8.18;;;;;;;;;;5004781;28;20042;-66
2023/06/15 13:03:08;;;;;;;11.35;7.70;;;;;;;;;;5009763;28;20050;-63
2023/06/15 13:05:35;;;;;;;10.77;8.05;;;;;;;;;;5011153;28;20042;-63
2023/06/15 13:08:03;;;;;;;15.18;8.65;;;;;;;;;;5020759;28;20057;-64
2023/06/15 13:10:31;;;;;;;11.98;8.77;;;;;;;;;;5010903;28;20042;-63
2023/06/15 13:12:58;;;;;;;;;;;;;;;;;;5010522;28;20038;-64
2023/06/15 13:15:25;;;;;;;10.73;7.97;;;;;;;;;;5010703;28;19925;-63
2023/06/15 13:17:51;;;;;;;12.35;8.02;;;;;;;;;;5009948;28;20061;-62
2023/06/15 13:20:18;;;;;;;12.20;7.60;;;;;;;;;;5010819;28;20052;-63
2023/06/15 13:22:49;;;;;;;12.05;7.97;;;;;;;;;;5009618;28;20041;-63
2023/06/15 13:25:15;;;;;;;16.58;7.60;;;;;;;;;;5007506;28;20034;-63
2023/06/15 13:27:41;;;;;;;11.95;8.38;;;;;;;;;;5008098;28;20053;-63
2023/06/15 13:30:09;;;;;;;13.30;9.43;;;;;;;;;;5007310;28;20042;-63
2023/06/15 13:32:38;;;;;;;10.70;8.52;;;;;;;;;;5004604;28;20050;-63
2023/06/15 13:35:06;;;;;;;13.95;9.55;;;;;;;;;;5006655;28;20037;-63
2023/06/15 13:37:34;;;;;;;13.47;9.37;;;;;;;;;;5013270;28;20044;-63
2023/06/15 13:40:06;;;;;;;17.23;9.50;;;;;;;;;;5010285;28;20045;-62
2023/06/15 13:42:40;;;;;;;74.95;11.52;;;;;;;;;;5014226;28;20056;-63
2023/06/15 13:45:11;;;;;;;64.25;11.60;;;;;;;;;;5004699;28;20423;-63
2023/06/15 13:47:40;;;;;;;50.33;10.57;;;;;;;;;;5015259;28;20045;-63
2023/06/15 13:50:08;;;;;;;15.23;9.13;;;;;;;;;;5018342;28;20038;-63
2023/06/15 13:52:34;;;;;;;13.18;9.95;;;;;;;;;;5019052;28;20061;-64
2023/06/15 13:55:02;;;;;;;13.95;10.02;;;;;;;;;;5008256;28;20668;-64
2023/06/15 13:57:29;;;;;;;14.30;10.00;;;;;;;;;;5010117;28;20061;-64
2023/06/15 13:59:55;;;;;;;14.70;10.07;;;;;;;;;;5009959;28;20110;-64
2023/06/15 14:02:21;;;;;;;16.25;9.63;;;;;;;;;;4996968;28;20033;-64
2023/06/15 14:04:47;;;;;;;17.48;10.15;;;;;;;;;;5020972;28;20058;-63
2023/06/15 14:07:14;;;;;;;10.82;9.20;;;;;;;;;;5010567;28;20045;-64
2023/06/15 14:09:42;;;;;;;13.07;9.27;;;;;;;;;;5009916;28;20049;-62
2023/06/15 14:12:10;;;;;;;14.07;10.65;;;;;;;;;;5008679;28;20571;-64
2023/06/15 14:14:37;;;;;;;12.32;9.75;;;;;;;;;;5010284;28;20042;-67
2023/06/15 14:17:04;;;;;;;13.32;9.32;;;;;;;;;;5011058;28;20040;-67
2023/06/15 14:19:30;;;;;;;12.23;9.32;;;;;;;;;;5005254;28;20046;-65
2023/06/15 14:21:56;;;;;;;10.10;8.73;;;;;;;;;;5019426;28;20042;-65
2023/06/15 14:24:23;;;;;;;15.23;9.30;;;;;;;;;;5014691;28;20033;-64
2023/06/15 14:26:49;;;;;;;14.50;8.52;;;;;;;;;;5013555;28;20044;-63
2023/06/15 14:29:15;;;;;;;11.45;9.15;;;;;;;;;;5012170;28;20045;-64
2023/06/15 14:31:45;;;;;;;13.60;9.20;;;;;;;;;;5012499;28;20047;-61
2023/06/15 14:34:21;;;;;;;12.52;9.40;;;;;;;;;;5013720;28;20038;-60
2023/06/15 14:36:49;;;;;;;12.18;9.50;;;;;;;;;;5012232;28;20044;-68